PWSweather.com
Personal Weather Stations
Station Observations
WD4JKH
Forsyth, GA 31029

Forsyth, GA 31029

Lat: 33.033225, Lon: -83.927995

Elevation: 709

Station Type: Davis Vantage VUE

High Low Average
Temperature 77.6°F25.3°C 57.7°F14.3°C 65.8°F18.8°C
Dew Point 63.2°F17.3°C 56.2°F13.4°C 58.7°F14.8°C
Winds 8.6 mph 13.8 kmh Calm Calm 2.0 mph SSW3.2 kmh SSW
Wind Gusts 19.0 mph30.6 kmh 1.0 mph1.6 kmh 8.0 mph12.9 kmh
Humidity 97% 53% 80%
Pressure 30.17 in1021.7 mb 30.02 in1016.6 mb -
Precipitation 0.06 in1.5 mm - -
Hour Temp Dew Point Humidity Winds Wind Gusts Pressure Precip Precip Rate Daily Precip Total
12:01 AM 58.4°F14.7°C 56.3°F13.5°C 93% 1.7 mph SE2.7 kmh SE 4.0 mph6.4 kmh 30.17 in1021.7 mb 0.02 in0.5 mm 1.20 in30.5 mm 0.02 in0.5 mm
12:06 AM 58.4°F14.7°C 56.3°F13.5°C 93% 2.7 mph SE4.3 kmh SE 5.0 mph8.0 kmh 30.17 in1021.7 mb 0.02 in0.5 mm 0.00 in0.0 mm 0.02 in0.5 mm
12:11 AM 58.5°F14.7°C 56.4°F13.6°C 93% 1.9 mph SE3.1 kmh SE 5.0 mph8.0 kmh 30.16 in1021.3 mb 0.03 in0.8 mm 0.12 in3.0 mm 0.03 in0.8 mm
12:16 AM 58.4°F14.7°C 56.6°F13.7°C 94% 2.2 mph SE3.5 kmh SE 5.0 mph8.0 kmh 30.16 in1021.3 mb 0.04 in1.0 mm 0.12 in3.0 mm 0.04 in1.0 mm
12:21 AM 58.4°F14.7°C 56.6°F13.7°C 94% 2.7 mph ESE4.3 kmh ESE 6.0 mph9.7 kmh 30.16 in1021.3 mb 0.04 in1.0 mm 0.00 in0.0 mm 0.04 in1.0 mm
12:26 AM 58.3°F14.6°C 56.6°F13.7°C 94% 2.8 mph SE4.5 kmh SE 7.0 mph11.3 kmh 30.15 in1021.0 mb 0.04 in1.0 mm 0.00 in0.0 mm 0.04 in1.0 mm
12:31 AM 58.2°F14.6°C 56.4°F13.6°C 94% 2.5 mph ESE4.0 kmh ESE 7.0 mph11.3 kmh 30.15 in1021.0 mb 0.03 in0.8 mm 0.00 in0.0 mm 0.04 in1.0 mm
12:36 AM 58.2°F14.6°C 56.7°F13.7°C 95% 2.8 mph SE4.5 kmh SE 7.0 mph11.3 kmh 30.15 in1021.0 mb 0.04 in1.0 mm 0.12 in3.0 mm 0.05 in1.3 mm
12:41 AM 58.1°F14.5°C 56.6°F13.7°C 95% 3.0 mph SE4.8 kmh SE 7.0 mph11.3 kmh 30.14 in1020.7 mb 0.04 in1.0 mm 0.00 in0.0 mm 0.05 in1.3 mm
12:46 AM 58.2°F14.6°C 56.7°F13.7°C 95% 2.5 mph SE4.0 kmh SE 8.0 mph12.9 kmh 30.14 in1020.7 mb 0.04 in1.0 mm 0.00 in0.0 mm 0.05 in1.3 mm
12:51 AM 58.2°F14.6°C 56.7°F13.7°C 95% 2.3 mph SE3.7 kmh SE 8.0 mph12.9 kmh 30.14 in1020.7 mb 0.03 in0.8 mm 0.00 in0.0 mm 0.05 in1.3 mm
12:55 AM 58.2°F14.6°C 56.7°F13.7°C 95% 3.7 mph SE6.0 kmh SE 9.0 mph14.5 kmh 30.13 in1020.3 mb 0.03 in0.8 mm 0.00 in0.0 mm 0.05 in1.3 mm
01:00 AM 58.1°F14.5°C 56.6°F13.7°C 95% 2.4 mph SE3.9 kmh SE 9.0 mph14.5 kmh 30.13 in1020.3 mb 0.03 in0.8 mm 0.00 in0.0 mm 0.05 in1.3 mm
01:05 AM 58.1°F14.5°C 56.6°F13.7°C 95% 3.1 mph SE5.0 kmh SE 9.0 mph14.5 kmh 30.13 in1020.3 mb 0.03 in0.8 mm 0.00 in0.0 mm 0.05 in1.3 mm
01:10 AM 58.1°F14.5°C 56.6°F13.7°C 95% 2.6 mph SE4.2 kmh SE 9.0 mph14.5 kmh 30.12 in1020.0 mb 0.02 in0.5 mm 0.00 in0.0 mm 0.05 in1.3 mm
01:15 AM 58.1°F14.5°C 56.6°F13.7°C 95% 3.0 mph SE4.8 kmh SE 9.0 mph14.5 kmh 30.12 in1020.0 mb 0.02 in0.5 mm 0.00 in0.0 mm 0.05 in1.3 mm
01:20 AM 58.1°F14.5°C 56.6°F13.7°C 95% 4.1 mph SSE6.6 kmh SSE 9.0 mph14.5 kmh 30.11 in1019.6 mb 0.01 in0.3 mm 0.00 in0.0 mm 0.05 in1.3 mm
01:25 AM 58.0°F14.4°C 56.5°F13.6°C 95% 5.6 mph SE9.0 kmh SE 11.0 mph17.7 kmh 30.11 in1019.6 mb 0.01 in0.3 mm 0.00 in0.0 mm 0.05 in1.3 mm
01:30 AM 58.0°F14.4°C 56.6°F13.7°C 95% 4.1 mph SSE6.6 kmh SSE 11.0 mph17.7 kmh 30.10 in1019.3 mb 0.01 in0.3 mm 0.00 in0.0 mm 0.05 in1.3 mm
01:35 AM 58.0°F14.4°C 56.6°F13.7°C 95% 4.8 mph SSE7.7 kmh SSE 11.0 mph17.7 kmh 30.10 in1019.3 mb 0.00 in0.0 mm 0.00 in0.0 mm 0.05 in1.3 mm
01:40 AM 58.0°F14.4°C 56.6°F13.7°C 95% 5.1 mph SE8.2 kmh SE 11.0 mph17.7 kmh 30.09 in1019.0 mb 0.00 in0.0 mm 0.00 in0.0 mm 0.05 in1.3 mm
01:45 AM 57.9°F14.4°C 56.5°F13.6°C 95% 4.4 mph SE7.1 kmh SE 11.0 mph17.7 kmh 30.09 in1019.0 mb 0.00 in0.0 mm 0.00 in0.0 mm 0.05 in1.3 mm
01:50 AM 57.9°F14.4°C 56.4°F13.6°C 95% 5.9 mph SE9.5 kmh SE 15.0 mph24.1 kmh 30.08 in1018.6 mb 0.00 in0.0 mm 0.00 in0.0 mm 0.05 in1.3 mm
01:55 AM 57.9°F14.4°C 56.4°F13.6°C 95% 5.0 mph SE8.0 kmh SE 15.0 mph24.1 kmh 30.07 in1018.3 mb 0.00 in0.0 mm 0.00 in0.0 mm 0.05 in1.3 mm
02:00 AM 57.9°F14.4°C 56.4°F13.6°C 95% 6.0 mph SE9.7 kmh SE 15.0 mph24.1 kmh 30.07 in1018.3 mb 0.00 in0.0 mm 0.00 in0.0 mm 0.05 in1.3 mm
02:05 AM 57.8°F14.3°C 56.3°F13.5°C 95% 5.4 mph SE8.7 kmh SE 15.0 mph24.1 kmh 30.07 in1018.3 mb 0.00 in0.0 mm 0.00 in0.0 mm 0.05 in1.3 mm
02:10 AM 57.8°F14.3°C 56.3°F13.5°C 95% 2.5 mph SE4.0 kmh SE 15.0 mph24.1 kmh 30.07 in1018.3 mb 0.00 in0.0 mm 0.00 in0.0 mm 0.05 in1.3 mm
02:15 AM 57.7°F14.3°C 56.2°F13.4°C 95% 4.2 mph S6.8 kmh S 15.0 mph24.1 kmh 30.07 in1018.3 mb 0.00 in0.0 mm 0.00 in0.0 mm 0.05 in1.3 mm
02:20 AM 57.7°F14.3°C 56.2°F13.4°C 95% 2.7 mph SSE4.3 kmh SSE 15.0 mph24.1 kmh 30.07 in1018.3 mb 0.00 in0.0 mm 0.00 in0.0 mm 0.05 in1.3 mm
02:25 AM 57.7°F14.3°C 56.2°F13.4°C 95% 4.3 mph SE6.9 kmh SE 15.0 mph24.1 kmh 30.07 in1018.3 mb 0.00 in0.0 mm 0.00 in0.0 mm 0.05 in1.3 mm
02:30 AM 57.7°F14.3°C 56.2°F13.4°C 95% 4.0 mph SSE6.4 kmh SSE 15.0 mph24.1 kmh 30.07 in1018.3 mb 0.00 in0.0 mm 0.00 in0.0 mm 0.05 in1.3 mm
02:35 AM 57.7°F14.3°C 56.2°F13.4°C 95% 2.1 mph S3.4 kmh S 10.0 mph16.1 kmh 30.07 in1018.3 mb 0.00 in0.0 mm 0.00 in0.0 mm 0.05 in1.3 mm
02:40 AM 57.8°F14.3°C 56.3°F13.5°C 95% 3.9 mph SSE6.3 kmh SSE 10.0 mph16.1 kmh 30.07 in1018.3 mb 0.00 in0.0 mm 0.00 in0.0 mm 0.05 in1.3 mm
02:45 AM 57.8°F14.3°C 56.3°F13.5°C 95% 3.1 mph SE5.0 kmh SE 9.0 mph14.5 kmh 30.07 in1018.3 mb 0.00 in0.0 mm 0.00 in0.0 mm 0.05 in1.3 mm
02:50 AM 57.8°F14.3°C 56.3°F13.5°C 95% 3.5 mph SSE5.6 kmh SSE 10.0 mph16.1 kmh 30.06 in1017.9 mb 0.00 in0.0 mm 0.00 in0.0 mm 0.05 in1.3 mm
02:55 AM 57.8°F14.3°C 56.3°F13.5°C 95% 4.0 mph SSE6.4 kmh SSE 10.0 mph16.1 kmh 30.06 in1017.9 mb 0.00 in0.0 mm 0.00 in0.0 mm 0.05 in1.3 mm
03:00 AM 57.8°F14.3°C 56.4°F13.6°C 95% 2.6 mph SE4.2 kmh SE 10.0 mph16.1 kmh 30.06 in1017.9 mb 0.00 in0.0 mm 0.00 in0.0 mm 0.05 in1.3 mm
03:05 AM 57.8°F14.3°C 56.4°F13.6°C 95% 2.4 mph S3.9 kmh S 10.0 mph16.1 kmh 30.06 in1017.9 mb 0.00 in0.0 mm 0.00 in0.0 mm 0.05 in1.3 mm
03:10 AM 57.8°F14.3°C 56.4°F13.6°C 95% 2.3 mph SSE3.7 kmh SSE 8.0 mph12.9 kmh 30.06 in1017.9 mb 0.00 in0.0 mm 0.00 in0.0 mm 0.05 in1.3 mm
03:15 AM 57.8°F14.3°C 56.4°F13.6°C 95% 2.3 mph SSE3.7 kmh SSE 8.0 mph12.9 kmh 30.06 in1017.9 mb 0.00 in0.0 mm 0.00 in0.0 mm 0.05 in1.3 mm
03:20 AM 57.8°F14.3°C 56.4°F13.6°C 95% 1.5 mph S2.4 kmh S 8.0 mph12.9 kmh 30.06 in1017.9 mb 0.00 in0.0 mm 0.00 in0.0 mm 0.05 in1.3 mm
03:25 AM 57.8°F14.3°C 56.4°F13.6°C 95% 2.0 mph S3.2 kmh S 8.0 mph12.9 kmh 30.06 in1017.9 mb 0.00 in0.0 mm 0.00 in0.0 mm 0.05 in1.3 mm
03:30 AM 57.8°F14.3°C 56.7°F13.7°C 96% 1.5 mph SSE2.4 kmh SSE 8.0 mph12.9 kmh 30.06 in1017.9 mb 0.00 in0.0 mm 0.00 in0.0 mm 0.05 in1.3 mm
03:35 AM 57.8°F14.3°C 56.7°F13.7°C 96% 1.5 mph SSE2.4 kmh SSE 6.0 mph9.7 kmh 30.07 in1018.3 mb 0.00 in0.0 mm 0.00 in0.0 mm 0.05 in1.3 mm
03:40 AM 57.9°F14.4°C 56.7°F13.7°C 96% 1.0 mph SE1.6 kmh SE 5.0 mph8.0 kmh 30.07 in1018.3 mb 0.00 in0.0 mm 0.00 in0.0 mm 0.05 in1.3 mm
03:45 AM 57.8°F14.3°C 56.6°F13.7°C 96% 1.0 mph SSW1.6 kmh SSW 5.0 mph8.0 kmh 30.06 in1017.9 mb 0.00 in0.0 mm 0.00 in0.0 mm 0.05 in1.3 mm
03:50 AM 57.9°F14.4°C 56.7°F13.7°C 96% 1.8 mph SSE2.9 kmh SSE 7.0 mph11.3 kmh 30.06 in1017.9 mb 0.00 in0.0 mm 0.00 in0.0 mm 0.05 in1.3 mm
03:55 AM 57.9°F14.4°C 56.7°F13.7°C 96% 3.2 mph S5.1 kmh S 7.0 mph11.3 kmh 30.06 in1017.9 mb 0.00 in0.0 mm 0.00 in0.0 mm 0.05 in1.3 mm
04:00 AM 57.9°F14.4°C 56.7°F13.7°C 96% Calm Calm 9.0 mph14.5 kmh 30.06 in1017.9 mb 0.00 in0.0 mm 0.00 in0.0 mm 0.05 in1.3 mm
04:05 AM 57.9°F14.4°C 56.7°F13.7°C 96% 1.6 mph SE2.6 kmh SE 9.0 mph14.5 kmh 30.06 in1017.9 mb 0.00 in0.0 mm 0.00 in0.0 mm 0.05 in1.3 mm
04:10 AM 57.9°F14.4°C 56.7°F13.7°C 96% Calm Calm 9.0 mph14.5 kmh 30.06 in1017.9 mb 0.00 in0.0 mm 0.00 in0.0 mm 0.05 in1.3 mm
04:15 AM 57.9°F14.4°C 56.7°F13.7°C 96% 1.9 mph S3.1 kmh S 9.0 mph14.5 kmh 30.06 in1017.9 mb 0.00 in0.0 mm 0.00 in0.0 mm 0.05 in1.3 mm
04:20 AM 57.9°F14.4°C 56.7°F13.7°C 96% 2.4 mph S3.9 kmh S 8.0 mph12.9 kmh 30.06 in1017.9 mb 0.00 in0.0 mm 0.00 in0.0 mm 0.05 in1.3 mm
04:25 AM 57.9°F14.4°C 56.7°F13.7°C 96% 1.9 mph SE3.1 kmh SE 7.0 mph11.3 kmh 30.06 in1017.9 mb 0.00 in0.0 mm 0.00 in0.0 mm 0.05 in1.3 mm
04:30 AM 57.8°F14.3°C 56.6°F13.7°C 96% 2.0 mph S3.2 kmh S 7.0 mph11.3 kmh 30.06 in1017.9 mb 0.00 in0.0 mm 0.00 in0.0 mm 0.05 in1.3 mm
04:35 AM 57.8°F14.3°C 56.6°F13.7°C 96% 2.5 mph S4.0 kmh S 7.0 mph11.3 kmh 30.06 in1017.9 mb 0.00 in0.0 mm 0.00 in0.0 mm 0.05 in1.3 mm
04:40 AM 57.8°F14.3°C 56.6°F13.7°C 96% 2.3 mph S3.7 kmh S 6.0 mph9.7 kmh 30.06 in1017.9 mb 0.00 in0.0 mm 0.00 in0.0 mm 0.05 in1.3 mm
04:45 AM 57.8°F14.3°C 56.6°F13.7°C 96% 1.1 mph SE1.8 kmh SE 7.0 mph11.3 kmh 30.06 in1017.9 mb 0.00 in0.0 mm 0.00 in0.0 mm 0.05 in1.3 mm
04:50 AM 57.8°F14.3°C 56.7°F13.7°C 96% 1.4 mph SE2.3 kmh SE 7.0 mph11.3 kmh 30.06 in1017.9 mb 0.00 in0.0 mm 0.00 in0.0 mm 0.05 in1.3 mm
04:55 AM 57.8°F14.3°C 56.6°F13.7°C 96% Calm Calm 7.0 mph11.3 kmh 30.06 in1017.9 mb 0.00 in0.0 mm 0.00 in0.0 mm 0.05 in1.3 mm
05:00 AM 57.8°F14.3°C 56.6°F13.7°C 96% 1.5 mph SE2.4 kmh SE 7.0 mph11.3 kmh 30.06 in1017.9 mb 0.00 in0.0 mm 0.00 in0.0 mm 0.05 in1.3 mm
05:05 AM 57.8°F14.3°C 56.6°F13.7°C 96% 1.1 mph SSE1.8 kmh SSE 5.0 mph8.0 kmh 30.06 in1017.9 mb 0.00 in0.0 mm 0.00 in0.0 mm 0.05 in1.3 mm
05:10 AM 57.8°F14.3°C 56.7°F13.7°C 96% 2.1 mph SSE3.4 kmh SSE 5.0 mph8.0 kmh 30.06 in1017.9 mb 0.00 in0.0 mm 0.00 in0.0 mm 0.05 in1.3 mm
05:15 AM 57.8°F14.3°C 56.7°F13.7°C 96% Calm Calm 5.0 mph8.0 kmh 30.06 in1017.9 mb 0.00 in0.0 mm 0.00 in0.0 mm 0.05 in1.3 mm
05:20 AM 57.8°F14.3°C 56.6°F13.7°C 96% 1.0 mph SE1.6 kmh SE 4.0 mph6.4 kmh 30.06 in1017.9 mb 0.00 in0.0 mm 0.00 in0.0 mm 0.05 in1.3 mm
05:25 AM 57.8°F14.3°C 56.6°F13.7°C 96% 1.3 mph SSE2.1 kmh SSE 4.0 mph6.4 kmh 30.06 in1017.9 mb 0.00 in0.0 mm 0.00 in0.0 mm 0.05 in1.3 mm
05:30 AM 57.8°F14.3°C 56.6°F13.7°C 96% 1.3 mph SE2.1 kmh SE 2.0 mph3.2 kmh 30.06 in1017.9 mb 0.00 in0.0 mm 0.00 in0.0 mm 0.05 in1.3 mm
05:35 AM 57.8°F14.3°C 56.6°F13.7°C 96% Calm Calm 2.0 mph3.2 kmh 30.06 in1017.9 mb 0.00 in0.0 mm 0.00 in0.0 mm 0.05 in1.3 mm
05:40 AM 57.8°F14.3°C 56.6°F13.7°C 96% 2.1 mph S3.4 kmh S 4.0 mph6.4 kmh 30.06 in1017.9 mb 0.00 in0.0 mm 0.00 in0.0 mm 0.05 in1.3 mm
05:45 AM 57.8°F14.3°C 56.6°F13.7°C 96% 1.5 mph SW2.4 kmh SW 4.0 mph6.4 kmh 30.07 in1018.3 mb 0.00 in0.0 mm 0.00 in0.0 mm 0.05 in1.3 mm
05:50 AM 57.8°F14.3°C 56.6°F13.7°C 96% 1.0 mph S1.6 kmh S 4.0 mph6.4 kmh 30.07 in1018.3 mb 0.00 in0.0 mm 0.00 in0.0 mm 0.05 in1.3 mm
05:55 AM 57.9°F14.4°C 56.7°F13.7°C 96% 1.4 mph SE2.3 kmh SE 4.0 mph6.4 kmh 30.06 in1017.9 mb 0.00 in0.0 mm 0.00 in0.0 mm 0.05 in1.3 mm
06:00 AM 57.9°F14.4°C 56.7°F13.7°C 96% Calm Calm 2.0 mph3.2 kmh 30.07 in1018.3 mb 0.00 in0.0 mm 0.00 in0.0 mm 0.05 in1.3 mm
06:05 AM 57.9°F14.4°C 56.7°F13.7°C 96% 1.0 mph SE1.6 kmh SE 2.0 mph3.2 kmh 30.06 in1017.9 mb 0.00 in0.0 mm 0.00 in0.0 mm 0.05 in1.3 mm
06:10 AM 57.9°F14.4°C 56.7°F13.7°C 96% 1.0 mph SE1.6 kmh SE 2.0 mph3.2 kmh 30.07 in1018.3 mb 0.00 in0.0 mm 0.00 in0.0 mm 0.05 in1.3 mm
06:15 AM 57.9°F14.4°C 56.7°F13.7°C 96% 1.0 mph SW1.6 kmh SW 1.0 mph1.6 kmh 30.07 in1018.3 mb 0.00 in0.0 mm 0.00 in0.0 mm 0.05 in1.3 mm
06:20 AM 57.9°F14.4°C 56.8°F13.8°C 96% Calm Calm 1.0 mph1.6 kmh 30.07 in1018.3 mb 0.00 in0.0 mm 0.00 in0.0 mm 0.05 in1.3 mm
06:25 AM 57.9°F14.4°C 56.7°F13.7°C 96% Calm Calm 1.0 mph1.6 kmh 30.07 in1018.3 mb 0.00 in0.0 mm 0.00 in0.0 mm 0.05 in1.3 mm
06:30 AM 57.9°F14.4°C 56.7°F13.7°C 96% 1.0 mph WSW1.6 kmh WSW 1.0 mph1.6 kmh 30.07 in1018.3 mb 0.00 in0.0 mm 0.00 in0.0 mm 0.05 in1.3 mm
06:35 AM 57.9°F14.4°C 56.7°F13.7°C 96% 1.0 mph SW1.6 kmh SW 1.0 mph1.6 kmh 30.07 in1018.3 mb 0.01 in0.3 mm 0.12 in3.0 mm 0.06 in1.5 mm
06:40 AM 57.9°F14.4°C 56.7°F13.7°C 96% 1.1 mph SW1.8 kmh SW 2.0 mph3.2 kmh 30.07 in1018.3 mb 0.01 in0.3 mm 0.00 in0.0 mm 0.06 in1.5 mm
06:45 AM 57.9°F14.4°C 56.7°F13.7°C 96% Calm Calm 2.0 mph3.2 kmh 30.07 in1018.3 mb 0.01 in0.3 mm 0.00 in0.0 mm 0.06 in1.5 mm
06:49 AM 57.9°F14.4°C 56.7°F13.7°C 96% Calm Calm 2.0 mph3.2 kmh 30.07 in1018.3 mb 0.01 in0.3 mm 0.00 in0.0 mm 0.06 in1.5 mm
06:54 AM 57.9°F14.4°C 57.0°F13.9°C 97% 1.4 mph SW2.3 kmh SW 2.0 mph3.2 kmh 30.07 in1018.3 mb 0.01 in0.3 mm 0.00 in0.0 mm 0.06 in1.5 mm
06:59 AM 57.9°F14.4°C 57.0°F13.9°C 97% Calm Calm 2.0 mph3.2 kmh 30.07 in1018.3 mb 0.01 in0.3 mm 0.00 in0.0 mm 0.06 in1.5 mm
07:04 AM 57.9°F14.4°C 57.0°F13.9°C 97% Calm Calm 2.0 mph3.2 kmh 30.07 in1018.3 mb 0.01 in0.3 mm 0.00 in0.0 mm 0.06 in1.5 mm
07:09 AM 58.0°F14.4°C 57.1°F13.9°C 97% 1.0 mph SW1.6 kmh SW 2.0 mph3.2 kmh 30.08 in1018.6 mb 0.01 in0.3 mm 0.00 in0.0 mm 0.06 in1.5 mm
07:14 AM 58.0°F14.4°C 57.1°F13.9°C 97% 1.9 mph SW3.1 kmh SW 3.0 mph4.8 kmh 30.08 in1018.6 mb 0.01 in0.3 mm 0.00 in0.0 mm 0.06 in1.5 mm
07:19 AM 58.1°F14.5°C 57.2°F14.0°C 97% 1.3 mph SW2.1 kmh SW 3.0 mph4.8 kmh 30.08 in1018.6 mb 0.01 in0.3 mm 0.00 in0.0 mm 0.06 in1.5 mm
07:24 AM 58.1°F14.5°C 57.2°F14.0°C 97% 1.2 mph SW1.9 kmh SW 4.0 mph6.4 kmh 30.08 in1018.6 mb 0.01 in0.3 mm 0.00 in0.0 mm 0.06 in1.5 mm
07:29 AM 58.2°F14.6°C 57.3°F14.1°C 97% 1.6 mph SW2.6 kmh SW 4.0 mph6.4 kmh 30.08 in1018.6 mb 0.01 in0.3 mm 0.00 in0.0 mm 0.06 in1.5 mm
07:34 AM 58.3°F14.6°C 57.4°F14.1°C 97% 1.4 mph SW2.3 kmh SW 4.0 mph6.4 kmh 30.08 in1018.6 mb 0.00 in0.0 mm 0.00 in0.0 mm 0.06 in1.5 mm
07:39 AM 58.4°F14.7°C 57.5°F14.2°C 97% Calm Calm 3.0 mph4.8 kmh 30.08 in1018.6 mb 0.00 in0.0 mm 0.00 in0.0 mm 0.06 in1.5 mm
07:44 AM 58.4°F14.7°C 57.5°F14.2°C 97% 1.6 mph SW2.6 kmh SW 3.0 mph4.8 kmh 30.08 in1018.6 mb 0.00 in0.0 mm 0.00 in0.0 mm 0.06 in1.5 mm
07:49 AM 58.4°F14.7°C 57.6°F14.2°C 97% 1.2 mph WSW1.9 kmh WSW 3.0 mph4.8 kmh 30.08 in1018.6 mb 0.00 in0.0 mm 0.00 in0.0 mm 0.06 in1.5 mm
07:54 AM 58.5°F14.7°C 57.7°F14.3°C 97% 1.4 mph SW2.3 kmh SW 3.0 mph4.8 kmh 30.08 in1018.6 mb 0.00 in0.0 mm 0.00 in0.0 mm 0.06 in1.5 mm
07:59 AM 58.5°F14.7°C 57.7°F14.3°C 97% Calm Calm 3.0 mph4.8 kmh 30.08 in1018.6 mb 0.00 in0.0 mm 0.00 in0.0 mm 0.06 in1.5 mm
08:04 AM 58.6°F14.8°C 57.7°F14.3°C 97% 1.5 mph SW2.4 kmh SW 3.0 mph4.8 kmh 30.08 in1018.6 mb 0.00 in0.0 mm 0.00 in0.0 mm 0.06 in1.5 mm
08:09 AM 58.7°F14.8°C 57.8°F14.3°C 97% 1.6 mph SW2.6 kmh SW 3.0 mph4.8 kmh 30.08 in1018.6 mb 0.00 in0.0 mm 0.00 in0.0 mm 0.06 in1.5 mm
08:14 AM 58.8°F14.9°C 57.9°F14.4°C 97% 1.7 mph SW2.7 kmh SW 3.0 mph4.8 kmh 30.08 in1018.6 mb 0.00 in0.0 mm 0.00 in0.0 mm 0.06 in1.5 mm
08:19 AM 58.9°F14.9°C 58.0°F14.4°C 97% 1.4 mph SW2.3 kmh SW 3.0 mph4.8 kmh 30.08 in1018.6 mb 0.00 in0.0 mm 0.00 in0.0 mm 0.06 in1.5 mm
08:24 AM 59.0°F15.0°C 58.2°F14.6°C 97% 1.7 mph SW2.7 kmh SW 3.0 mph4.8 kmh 30.08 in1018.6 mb 0.00 in0.0 mm 0.00 in0.0 mm 0.06 in1.5 mm
08:29 AM 59.2°F15.1°C 58.3°F14.6°C 97% 1.0 mph SW1.6 kmh SW 3.0 mph4.8 kmh 30.08 in1018.6 mb 0.00 in0.0 mm 0.00 in0.0 mm 0.06 in1.5 mm
08:34 AM 59.4°F15.2°C 58.3°F14.6°C 96% 1.1 mph SSW1.8 kmh SSW 3.0 mph4.8 kmh 30.07 in1018.3 mb 0.00 in0.0 mm 0.00 in0.0 mm 0.06 in1.5 mm
08:39 AM 59.6°F15.3°C 58.5°F14.7°C 96% Calm Calm 4.0 mph6.4 kmh 30.07 in1018.3 mb 0.00 in0.0 mm 0.00 in0.0 mm 0.06 in1.5 mm
08:44 AM 59.8°F15.4°C 58.7°F14.8°C 96% 3.6 mph SW5.8 kmh SW 8.0 mph12.9 kmh 30.08 in1018.6 mb 0.00 in0.0 mm 0.00 in0.0 mm 0.06 in1.5 mm
08:49 AM 59.8°F15.4°C 58.7°F14.8°C 96% 3.3 mph SW5.3 kmh SW 8.0 mph12.9 kmh 30.08 in1018.6 mb 0.00 in0.0 mm 0.00 in0.0 mm 0.06 in1.5 mm
08:54 AM 59.9°F15.5°C 58.8°F14.9°C 96% 2.3 mph SW3.7 kmh SW 8.0 mph12.9 kmh 30.08 in1018.6 mb 0.00 in0.0 mm 0.00 in0.0 mm 0.06 in1.5 mm
08:59 AM 60.1°F15.6°C 59.0°F15.0°C 96% 1.5 mph SW2.4 kmh SW 8.0 mph12.9 kmh 30.08 in1018.6 mb 0.00 in0.0 mm 0.00 in0.0 mm 0.06 in1.5 mm
09:04 AM 60.2°F15.7°C 58.7°F14.8°C 95% 1.9 mph SW3.1 kmh SW 9.0 mph14.5 kmh 30.08 in1018.6 mb 0.00 in0.0 mm 0.00 in0.0 mm 0.06 in1.5 mm
09:09 AM 60.4°F15.8°C 58.9°F14.9°C 95% 1.8 mph SW2.9 kmh SW 9.0 mph14.5 kmh 30.07 in1018.3 mb 0.00 in0.0 mm 0.00 in0.0 mm 0.06 in1.5 mm
09:14 AM 60.7°F15.9°C 59.2°F15.1°C 95% 2.3 mph SW3.7 kmh SW 9.0 mph14.5 kmh 30.07 in1018.3 mb 0.00 in0.0 mm 0.00 in0.0 mm 0.06 in1.5 mm
09:19 AM 61.1°F16.2°C 59.6°F15.3°C 95% 4.1 mph SW6.6 kmh SW 9.0 mph14.5 kmh 30.07 in1018.3 mb 0.00 in0.0 mm 0.00 in0.0 mm 0.06 in1.5 mm
09:24 AM 61.3°F16.3°C 59.5°F15.3°C 94% 1.8 mph SW2.9 kmh SW 9.0 mph14.5 kmh 30.07 in1018.3 mb 0.00 in0.0 mm 0.00 in0.0 mm 0.06 in1.5 mm
09:29 AM 61.6°F16.4°C 59.8°F15.4°C 94% 3.2 mph SW5.1 kmh SW 9.0 mph14.5 kmh 30.07 in1018.3 mb 0.00 in0.0 mm 0.00 in0.0 mm 0.06 in1.5 mm
09:34 AM 61.8°F16.6°C 60.0°F15.6°C 94% 2.4 mph SW3.9 kmh SW 9.0 mph14.5 kmh 30.07 in1018.3 mb 0.00 in0.0 mm 0.00 in0.0 mm 0.06 in1.5 mm
09:39 AM 61.9°F16.6°C 59.8°F15.4°C 93% 3.7 mph SW6.0 kmh SW 9.0 mph14.5 kmh 30.08 in1018.6 mb 0.00 in0.0 mm 0.00 in0.0 mm 0.06 in1.5 mm
09:44 AM 62.1°F16.7°C 60.0°F15.6°C 93% 6.2 mph WSW10.0 kmh WSW 11.0 mph17.7 kmh 30.08 in1018.6 mb 0.00 in0.0 mm 0.00 in0.0 mm 0.06 in1.5 mm
09:49 AM 62.3°F16.8°C 60.2°F15.7°C 93% 2.8 mph SW4.5 kmh SW 11.0 mph17.7 kmh 30.08 in1018.6 mb 0.00 in0.0 mm 0.00 in0.0 mm 0.06 in1.5 mm
09:54 AM 62.5°F16.9°C 60.1°F15.6°C 92% 5.3 mph WSW8.5 kmh WSW 11.0 mph17.7 kmh 30.08 in1018.6 mb 0.00 in0.0 mm 0.00 in0.0 mm 0.06 in1.5 mm
09:59 AM 62.5°F16.9°C 60.1°F15.6°C 92% 3.4 mph WSW5.5 kmh WSW 13.0 mph20.9 kmh 30.08 in1018.6 mb 0.00 in0.0 mm 0.00 in0.0 mm 0.06 in1.5 mm
10:04 AM 62.7°F17.1°C 60.3°F15.7°C 92% 2.8 mph WSW4.5 kmh WSW 13.0 mph20.9 kmh 30.09 in1019.0 mb 0.00 in0.0 mm 0.00 in0.0 mm 0.06 in1.5 mm
10:09 AM 63.0°F17.2°C 60.6°F15.9°C 92% 3.6 mph SW5.8 kmh SW 13.0 mph20.9 kmh 30.09 in1019.0 mb 0.00 in0.0 mm 0.00 in0.0 mm 0.06 in1.5 mm
10:14 AM 63.4°F17.4°C 60.7°F15.9°C 91% 3.8 mph WSW6.1 kmh WSW 14.0 mph22.5 kmh 30.09 in1019.0 mb 0.00 in0.0 mm 0.00 in0.0 mm 0.06 in1.5 mm
10:19 AM 63.7°F17.6°C 60.7°F15.9°C 90% 4.5 mph WSW7.2 kmh WSW 14.0 mph22.5 kmh 30.09 in1019.0 mb 0.00 in0.0 mm 0.00 in0.0 mm 0.06 in1.5 mm
10:24 AM 64.2°F17.9°C 61.2°F16.2°C 90% 4.0 mph SW6.4 kmh SW 14.0 mph22.5 kmh 30.09 in1019.0 mb 0.00 in0.0 mm 0.00 in0.0 mm 0.06 in1.5 mm
10:29 AM 64.5°F18.1°C 61.2°F16.2°C 89% 3.0 mph SW4.8 kmh SW 14.0 mph22.5 kmh 30.09 in1019.0 mb 0.00 in0.0 mm 0.00 in0.0 mm 0.06 in1.5 mm
10:34 AM 64.8°F18.2°C 61.2°F16.2°C 88% 4.4 mph W7.1 kmh W 11.0 mph17.7 kmh 30.09 in1019.0 mb 0.00 in0.0 mm 0.00 in0.0 mm 0.06 in1.5 mm
10:39 AM 65.0°F18.3°C 61.0°F16.1°C 87% 4.3 mph W6.9 kmh W 11.0 mph17.7 kmh 30.09 in1019.0 mb 0.00 in0.0 mm 0.00 in0.0 mm 0.06 in1.5 mm
10:44 AM 65.6°F18.7°C 61.3°F16.3°C 86% 4.7 mph WSW7.6 kmh WSW 14.0 mph22.5 kmh 30.09 in1019.0 mb 0.00 in0.0 mm 0.00 in0.0 mm 0.06 in1.5 mm
10:49 AM 65.7°F18.7°C 61.4°F16.3°C 86% 2.4 mph SW3.9 kmh SW 14.0 mph22.5 kmh 30.09 in1019.0 mb 0.00 in0.0 mm 0.00 in0.0 mm 0.06 in1.5 mm
10:54 AM 66.3°F19.1°C 61.7°F16.5°C 85% 3.7 mph SW6.0 kmh SW 14.0 mph22.5 kmh 30.09 in1019.0 mb 0.00 in0.0 mm 0.00 in0.0 mm 0.06 in1.5 mm
10:59 AM 66.9°F19.4°C 61.9°F16.6°C 84% 4.7 mph WSW7.6 kmh WSW 14.0 mph22.5 kmh 30.10 in1019.3 mb 0.00 in0.0 mm 0.00 in0.0 mm 0.06 in1.5 mm
11:04 AM 66.9°F19.4°C 61.3°F16.3°C 82% 8.6 mph WSW13.8 kmh WSW 19.0 mph30.6 kmh 30.10 in1019.3 mb 0.00 in0.0 mm 0.00 in0.0 mm 0.06 in1.5 mm
11:09 AM 67.2°F19.6°C 61.9°F16.6°C 83% 4.6 mph SW7.4 kmh SW 19.0 mph30.6 kmh 30.10 in1019.3 mb 0.00 in0.0 mm 0.00 in0.0 mm 0.06 in1.5 mm
11:14 AM 67.6°F19.8°C 61.9°F16.6°C 82% 5.3 mph WSW8.5 kmh WSW 19.0 mph30.6 kmh 30.10 in1019.3 mb 0.00 in0.0 mm 0.00 in0.0 mm 0.06 in1.5 mm
11:19 AM 67.9°F19.9°C 61.9°F16.6°C 81% 3.9 mph WSW6.3 kmh WSW 19.0 mph30.6 kmh 30.09 in1019.0 mb 0.00 in0.0 mm 0.00 in0.0 mm 0.06 in1.5 mm
11:24 AM 68.3°F20.2°C 62.6°F17.0°C 82% 3.8 mph WSW6.1 kmh WSW 15.0 mph24.1 kmh 30.09 in1019.0 mb 0.00 in0.0 mm 0.00 in0.0 mm 0.06 in1.5 mm
11:29 AM 68.9°F20.5°C 63.2°F17.3°C 82% 3.5 mph WSW5.6 kmh WSW 15.0 mph24.1 kmh 30.09 in1019.0 mb 0.00 in0.0 mm 0.00 in0.0 mm 0.06 in1.5 mm
11:34 AM 68.9°F20.5°C 62.6°F17.0°C 80% 3.2 mph WSW5.1 kmh WSW 13.0 mph20.9 kmh 30.09 in1019.0 mb 0.00 in0.0 mm 0.00 in0.0 mm 0.06 in1.5 mm
11:39 AM 68.5°F20.3°C 61.8°F16.6°C 79% 5.1 mph WSW8.2 kmh WSW 14.0 mph22.5 kmh 30.09 in1019.0 mb 0.00 in0.0 mm 0.00 in0.0 mm 0.06 in1.5 mm
11:44 AM 68.7°F20.4°C 62.4°F16.9°C 80% 4.1 mph WSW6.6 kmh WSW 14.0 mph22.5 kmh 30.09 in1019.0 mb 0.00 in0.0 mm 0.00 in0.0 mm 0.06 in1.5 mm
11:49 AM 69.5°F20.8°C 62.1°F16.7°C 77% 3.9 mph W6.3 kmh W 14.0 mph22.5 kmh 30.09 in1019.0 mb 0.00 in0.0 mm 0.00 in0.0 mm 0.06 in1.5 mm
11:55 AM 69.7°F20.9°C 62.3°F16.8°C 77% 2.8 mph WSW4.5 kmh WSW 14.0 mph22.5 kmh 30.09 in1019.0 mb 0.00 in0.0 mm 0.00 in0.0 mm 0.06 in1.5 mm
11:59 AM 69.4°F20.8°C 61.6°F16.4°C 76% 7.1 mph SW11.4 kmh SW 16.0 mph25.7 kmh 30.09 in1019.0 mb 0.00 in0.0 mm 0.00 in0.0 mm 0.06 in1.5 mm
12:04 PM 68.8°F20.4°C 61.0°F16.1°C 76% 5.1 mph WSW8.2 kmh WSW 16.0 mph25.7 kmh 30.08 in1018.6 mb 0.00 in0.0 mm 0.00 in0.0 mm 0.06 in1.5 mm
12:10 PM 68.6°F20.3°C 61.6°F16.4°C 78% 5.7 mph W9.2 kmh W 16.0 mph25.7 kmh 30.08 in1018.6 mb 0.00 in0.0 mm 0.00 in0.0 mm 0.06 in1.5 mm
12:15 PM 68.8°F20.4°C 61.4°F16.3°C 77% 6.6 mph WSW10.6 kmh WSW 16.0 mph25.7 kmh 30.08 in1018.6 mb 0.00 in0.0 mm 0.00 in0.0 mm 0.06 in1.5 mm
12:20 PM 69.3°F20.7°C 62.2°F16.8°C 78% 4.0 mph SW6.4 kmh SW 11.0 mph17.7 kmh 30.08 in1018.6 mb 0.00 in0.0 mm 0.00 in0.0 mm 0.06 in1.5 mm
12:25 PM 69.7°F20.9°C 61.9°F16.6°C 76% 4.4 mph WNW7.1 kmh WNW 11.0 mph17.7 kmh 30.08 in1018.6 mb 0.00 in0.0 mm 0.00 in0.0 mm 0.06 in1.5 mm
12:29 PM 70.0°F21.1°C 61.5°F16.4°C 74% 3.9 mph W6.3 kmh W 11.0 mph17.7 kmh 30.07 in1018.3 mb 0.00 in0.0 mm 0.00 in0.0 mm 0.06 in1.5 mm
12:34 PM 70.5°F21.4°C 61.0°F16.1°C 72% 2.1 mph NW3.4 kmh NW 10.0 mph16.1 kmh 30.07 in1018.3 mb 0.00 in0.0 mm 0.00 in0.0 mm 0.06 in1.5 mm
12:40 PM 70.9°F21.6°C 61.0°F16.1°C 71% 2.7 mph WNW4.3 kmh WNW 9.0 mph14.5 kmh 30.06 in1017.9 mb 0.00 in0.0 mm 0.00 in0.0 mm 0.06 in1.5 mm
12:45 PM 71.6°F22.0°C 62.3°F16.8°C 72% 2.3 mph WNW3.7 kmh WNW 9.0 mph14.5 kmh 30.06 in1017.9 mb 0.00 in0.0 mm 0.00 in0.0 mm 0.06 in1.5 mm
12:48 PM 72.0°F22.2°C 61.5°F16.4°C 69% 4.0 mph WNW6.4 kmh WNW 8.0 mph12.9 kmh 30.06 in1017.9 mb 0.00 in0.0 mm 0.00 in0.0 mm 0.06 in1.5 mm
12:53 PM 72.1°F22.3°C 61.2°F16.2°C 68% 4.1 mph WNW6.6 kmh WNW 9.0 mph14.5 kmh 30.07 in1018.3 mb 0.00 in0.0 mm 0.00 in0.0 mm 0.06 in1.5 mm
12:58 PM 71.9°F22.2°C 61.0°F16.1°C 68% 5.6 mph W9.0 kmh W 13.0 mph20.9 kmh 30.07 in1018.3 mb 0.00 in0.0 mm 0.00 in0.0 mm 0.06 in1.5 mm
01:03 PM 71.9°F22.2°C 60.5°F15.8°C 67% 6.6 mph WSW10.6 kmh WSW 15.0 mph24.1 kmh 30.06 in1017.9 mb 0.00 in0.0 mm 0.00 in0.0 mm 0.06 in1.5 mm
01:08 PM 71.6°F22.0°C 59.8°F15.4°C 66% 5.0 mph WNW8.0 kmh WNW 15.0 mph24.1 kmh 30.06 in1017.9 mb 0.00 in0.0 mm 0.00 in0.0 mm 0.06 in1.5 mm
01:13 PM 71.7°F22.1°C 59.7°F15.4°C 66% 8.2 mph WNW13.2 kmh WNW 15.0 mph24.1 kmh 30.06 in1017.9 mb 0.00 in0.0 mm 0.00 in0.0 mm 0.06 in1.5 mm
01:18 PM 71.4°F21.9°C 60.3°F15.7°C 68% 2.5 mph W4.0 kmh W 15.0 mph24.1 kmh 30.06 in1017.9 mb 0.00 in0.0 mm 0.00 in0.0 mm 0.06 in1.5 mm
01:23 PM 71.8°F22.1°C 60.2°F15.7°C 67% 6.4 mph WNW10.3 kmh WNW 13.0 mph20.9 kmh 30.06 in1017.9 mb 0.00 in0.0 mm 0.00 in0.0 mm 0.06 in1.5 mm
01:28 PM 72.7°F22.6°C 60.5°F15.8°C 65% 4.0 mph WNW6.4 kmh WNW 13.0 mph20.9 kmh 30.06 in1017.9 mb 0.00 in0.0 mm 0.00 in0.0 mm 0.06 in1.5 mm
01:33 PM 72.6°F22.6°C 60.8°F16.0°C 66% 2.8 mph NW4.5 kmh NW 10.0 mph16.1 kmh 30.06 in1017.9 mb 0.00 in0.0 mm 0.00 in0.0 mm 0.06 in1.5 mm
01:38 PM 72.7°F22.6°C 60.5°F15.8°C 65% 3.5 mph WNW5.6 kmh WNW 10.0 mph16.1 kmh 30.06 in1017.9 mb 0.00 in0.0 mm 0.00 in0.0 mm 0.06 in1.5 mm
01:43 PM 72.8°F22.7°C 60.1°F15.6°C 64% 6.9 mph WNW11.1 kmh WNW 11.0 mph17.7 kmh 30.07 in1018.3 mb 0.00 in0.0 mm 0.00 in0.0 mm 0.06 in1.5 mm
01:49 PM 72.4°F22.4°C 59.7°F15.4°C 64% 5.0 mph WNW8.0 kmh WNW 11.0 mph17.7 kmh 30.06 in1017.9 mb 0.00 in0.0 mm 0.00 in0.0 mm 0.06 in1.5 mm
01:53 PM 72.3°F22.4°C 59.4°F15.2°C 64% 4.2 mph W6.8 kmh W 11.0 mph17.7 kmh 30.06 in1017.9 mb 0.00 in0.0 mm 0.00 in0.0 mm 0.06 in1.5 mm
01:58 PM 72.6°F22.6°C 60.2°F15.7°C 65% 2.2 mph NW3.5 kmh NW 11.0 mph17.7 kmh 30.06 in1017.9 mb 0.00 in0.0 mm 0.00 in0.0 mm 0.06 in1.5 mm
02:03 PM 72.8°F22.7°C 59.9°F15.5°C 64% 3.1 mph NW5.0 kmh NW 11.0 mph17.7 kmh 30.05 in1017.6 mb 0.00 in0.0 mm 0.00 in0.0 mm 0.06 in1.5 mm
02:09 PM 73.0°F22.8°C 59.7°F15.4°C 63% 3.4 mph WNW5.5 kmh WNW 11.0 mph17.7 kmh 30.05 in1017.6 mb 0.00 in0.0 mm 0.00 in0.0 mm 0.06 in1.5 mm
02:14 PM 73.8°F23.2°C 60.0°F15.6°C 62% 1.0 mph NNW1.6 kmh NNW 8.0 mph12.9 kmh 30.05 in1017.6 mb 0.00 in0.0 mm 0.00 in0.0 mm 0.06 in1.5 mm
02:19 PM 74.2°F23.4°C 59.6°F15.3°C 60% 1.9 mph WNW3.1 kmh WNW 7.0 mph11.3 kmh 30.05 in1017.6 mb 0.00 in0.0 mm 0.00 in0.0 mm 0.06 in1.5 mm
02:24 PM 74.5°F23.6°C 59.9°F15.5°C 60% 2.7 mph W4.3 kmh W 8.0 mph12.9 kmh 30.05 in1017.6 mb 0.00 in0.0 mm 0.00 in0.0 mm 0.06 in1.5 mm
02:29 PM 75.1°F23.9°C 60.0°F15.6°C 59% 4.5 mph WSW7.2 kmh WSW 8.0 mph12.9 kmh 30.05 in1017.6 mb 0.00 in0.0 mm 0.00 in0.0 mm 0.06 in1.5 mm
02:34 PM 74.8°F23.8°C 59.2°F15.1°C 58% 3.6 mph NW5.8 kmh NW 8.0 mph12.9 kmh 30.05 in1017.6 mb 0.00 in0.0 mm 0.00 in0.0 mm 0.06 in1.5 mm
02:39 PM 74.5°F23.6°C 58.4°F14.7°C 57% 5.1 mph WNW8.2 kmh WNW 9.0 mph14.5 kmh 30.04 in1017.3 mb 0.00 in0.0 mm 0.00 in0.0 mm 0.06 in1.5 mm
02:44 PM 74.9°F23.8°C 59.3°F15.2°C 58% 4.3 mph WSW6.9 kmh WSW 9.0 mph14.5 kmh 30.04 in1017.3 mb 0.00 in0.0 mm 0.00 in0.0 mm 0.06 in1.5 mm
02:49 PM 74.6°F23.7°C 58.5°F14.7°C 57% 3.4 mph W5.5 kmh W 12.0 mph19.3 kmh 30.04 in1017.3 mb 0.00 in0.0 mm 0.00 in0.0 mm 0.06 in1.5 mm
02:54 PM 74.5°F23.6°C 58.9°F14.9°C 58% 4.0 mph WNW6.4 kmh WNW 12.0 mph19.3 kmh 30.04 in1017.3 mb 0.00 in0.0 mm 0.00 in0.0 mm 0.06 in1.5 mm
02:59 PM 74.5°F23.6°C 59.4°F15.2°C 59% 1.9 mph NW3.1 kmh NW 12.0 mph19.3 kmh 30.04 in1017.3 mb 0.00 in0.0 mm 0.00 in0.0 mm 0.06 in1.5 mm
03:04 PM 74.6°F23.7°C 59.5°F15.3°C 59% 2.8 mph W4.5 kmh W 10.0 mph16.1 kmh 30.04 in1017.3 mb 0.00 in0.0 mm 0.00 in0.0 mm 0.06 in1.5 mm
03:09 PM 74.8°F23.8°C 60.2°F15.7°C 60% 1.6 mph NW2.6 kmh NW 9.0 mph14.5 kmh 30.04 in1017.3 mb 0.00 in0.0 mm 0.00 in0.0 mm 0.06 in1.5 mm
03:14 PM 74.6°F23.7°C 59.5°F15.3°C 59% 1.8 mph NW2.9 kmh NW 7.0 mph11.3 kmh 30.04 in1017.3 mb 0.00 in0.0 mm 0.00 in0.0 mm 0.06 in1.5 mm
03:19 PM 74.5°F23.6°C 59.4°F15.2°C 59% 3.3 mph NW5.3 kmh NW 8.0 mph12.9 kmh 30.04 in1017.3 mb 0.00 in0.0 mm 0.00 in0.0 mm 0.06 in1.5 mm
03:24 PM 75.3°F24.1°C 59.5°F15.3°C 58% 3.3 mph NW5.3 kmh NW 8.0 mph12.9 kmh 30.03 in1016.9 mb 0.00 in0.0 mm 0.00 in0.0 mm 0.06 in1.5 mm
03:29 PM 75.3°F24.1°C 59.5°F15.3°C 58% 3.0 mph WNW4.8 kmh WNW 8.0 mph12.9 kmh 30.03 in1016.9 mb 0.00 in0.0 mm 0.00 in0.0 mm 0.06 in1.5 mm
03:34 PM 75.4°F24.1°C 59.8°F15.4°C 58% 1.8 mph W2.9 kmh W 8.0 mph12.9 kmh 30.03 in1016.9 mb 0.00 in0.0 mm 0.00 in0.0 mm 0.06 in1.5 mm
03:39 PM 75.7°F24.3°C 60.1°F15.6°C 58% 1.9 mph WNW3.1 kmh WNW 8.0 mph12.9 kmh 30.04 in1017.3 mb 0.00 in0.0 mm 0.00 in0.0 mm 0.06 in1.5 mm
03:44 PM 75.4°F24.1°C 59.8°F15.4°C 58% 3.3 mph WNW5.3 kmh WNW 8.0 mph12.9 kmh 30.04 in1017.3 mb 0.00 in0.0 mm 0.00 in0.0 mm 0.06 in1.5 mm
03:49 PM 75.4°F24.1°C 59.3°F15.2°C 57% 3.1 mph NW5.0 kmh NW 8.0 mph12.9 kmh 30.03 in1016.9 mb 0.00 in0.0 mm 0.00 in0.0 mm 0.06 in1.5 mm
03:54 PM 75.6°F24.2°C 59.5°F15.3°C 57% 2.3 mph NW3.7 kmh NW 7.0 mph11.3 kmh 30.03 in1016.9 mb 0.00 in0.0 mm 0.00 in0.0 mm 0.06 in1.5 mm
03:59 PM 76.1°F24.5°C 59.9°F15.5°C 57% 2.5 mph W4.0 kmh W 7.0 mph11.3 kmh 30.03 in1016.9 mb 0.00 in0.0 mm 0.00 in0.0 mm 0.06 in1.5 mm
04:04 PM 76.2°F24.6°C 59.5°F15.3°C 56% 1.9 mph W3.1 kmh W 6.0 mph9.7 kmh 30.03 in1016.9 mb 0.00 in0.0 mm 0.00 in0.0 mm 0.06 in1.5 mm
04:09 PM 75.9°F24.4°C 59.3°F15.2°C 56% 3.7 mph WNW6.0 kmh WNW 8.0 mph12.9 kmh 30.03 in1016.9 mb 0.00 in0.0 mm 0.00 in0.0 mm 0.06 in1.5 mm
04:14 PM 75.7°F24.3°C 59.1°F15.1°C 56% 3.6 mph W5.8 kmh W 8.0 mph12.9 kmh 30.03 in1016.9 mb 0.00 in0.0 mm 0.00 in0.0 mm 0.06 in1.5 mm
04:19 PM 75.7°F24.3°C 59.6°F15.3°C 57% 3.8 mph WSW6.1 kmh WSW 8.0 mph12.9 kmh 30.03 in1016.9 mb 0.00 in0.0 mm 0.00 in0.0 mm 0.06 in1.5 mm
04:24 PM 75.6°F24.2°C 59.3°F15.2°C 57% 3.1 mph W5.0 kmh W 8.0 mph12.9 kmh 30.03 in1016.9 mb 0.00 in0.0 mm 0.00 in0.0 mm 0.06 in1.5 mm
04:29 PM 75.5°F24.2°C 59.2°F15.1°C 57% 2.3 mph WSW3.7 kmh WSW 7.0 mph11.3 kmh 30.03 in1016.9 mb 0.00 in0.0 mm 0.00 in0.0 mm 0.06 in1.5 mm
04:34 PM 76.2°F24.6°C 58.9°F14.9°C 55% 4.6 mph WNW7.4 kmh WNW 9.0 mph14.5 kmh 30.02 in1016.6 mb 0.00 in0.0 mm 0.00 in0.0 mm 0.06 in1.5 mm
04:39 PM 76.4°F24.7°C 60.2°F15.7°C 57% 2.2 mph WNW3.5 kmh WNW 9.0 mph14.5 kmh 30.02 in1016.6 mb 0.00 in0.0 mm 0.00 in0.0 mm 0.06 in1.5 mm
04:44 PM 76.9°F24.9°C 59.7°F15.4°C 55% 3.2 mph W5.1 kmh W 9.0 mph14.5 kmh 30.03 in1016.9 mb 0.00 in0.0 mm 0.00 in0.0 mm 0.06 in1.5 mm
04:49 PM 76.7°F24.8°C 59.0°F15.0°C 54% 2.1 mph W3.4 kmh W 9.0 mph14.5 kmh 30.02 in1016.6 mb 0.00 in0.0 mm 0.00 in0.0 mm 0.06 in1.5 mm
04:54 PM 76.8°F24.9°C 59.6°F15.3°C 55% 2.3 mph W3.7 kmh W 8.0 mph12.9 kmh 30.02 in1016.6 mb 0.00 in0.0 mm 0.00 in0.0 mm 0.06 in1.5 mm
04:59 PM 77.6°F25.3°C 60.3°F15.7°C 55% 1.7 mph WSW2.7 kmh WSW 8.0 mph12.9 kmh 30.03 in1016.9 mb 0.00 in0.0 mm 0.00 in0.0 mm 0.06 in1.5 mm
05:04 PM 77.4°F25.2°C 59.6°F15.3°C 54% 3.4 mph WSW5.5 kmh WSW 10.0 mph16.1 kmh 30.03 in1016.9 mb 0.00 in0.0 mm 0.00 in0.0 mm 0.06 in1.5 mm
05:09 PM 77.3°F25.2°C 59.0°F15.0°C 53% 4.4 mph SW7.1 kmh SW 10.0 mph16.1 kmh 30.03 in1016.9 mb 0.00 in0.0 mm 0.00 in0.0 mm 0.06 in1.5 mm
05:14 PM 77.1°F25.1°C 59.2°F15.1°C 54% 2.3 mph W3.7 kmh W 10.0 mph16.1 kmh 30.03 in1016.9 mb 0.00 in0.0 mm 0.00 in0.0 mm 0.06 in1.5 mm
05:19 PM 76.9°F24.9°C 59.7°F15.4°C 55% 1.4 mph SW2.3 kmh SW 10.0 mph16.1 kmh 30.03 in1016.9 mb 0.00 in0.0 mm 0.00 in0.0 mm 0.06 in1.5 mm
05:24 PM 76.6°F24.8°C 58.7°F14.8°C 54% 2.5 mph WSW4.0 kmh WSW 10.0 mph16.1 kmh 30.03 in1016.9 mb 0.00 in0.0 mm 0.00 in0.0 mm 0.06 in1.5 mm
05:29 PM 76.9°F24.9°C 59.1°F15.1°C 54% 1.0 mph SW1.6 kmh SW 6.0 mph9.7 kmh 30.03 in1016.9 mb 0.00 in0.0 mm 0.00 in0.0 mm 0.06 in1.5 mm
05:34 PM 77.0°F25.0°C 59.2°F15.1°C 54% 1.6 mph WSW2.6 kmh WSW 6.0 mph9.7 kmh 30.03 in1016.9 mb 0.00 in0.0 mm 0.00 in0.0 mm 0.06 in1.5 mm
05:39 PM 76.8°F24.9°C 59.6°F15.3°C 55% 1.3 mph SW2.1 kmh SW 6.0 mph9.7 kmh 30.03 in1016.9 mb 0.00 in0.0 mm 0.00 in0.0 mm 0.06 in1.5 mm
05:44 PM 76.5°F24.7°C 59.3°F15.2°C 55% 1.4 mph WSW2.3 kmh WSW 5.0 mph8.0 kmh 30.03 in1016.9 mb 0.00 in0.0 mm 0.00 in0.0 mm 0.06 in1.5 mm
05:49 PM 77.0°F25.0°C 59.8°F15.4°C 55% 1.2 mph SW1.9 kmh SW 4.0 mph6.4 kmh 30.03 in1016.9 mb 0.00 in0.0 mm 0.00 in0.0 mm 0.06 in1.5 mm
05:54 PM 77.0°F25.0°C 59.2°F15.1°C 54% 3.1 mph WSW5.0 kmh WSW 8.0 mph12.9 kmh 30.03 in1016.9 mb 0.00 in0.0 mm 0.00 in0.0 mm 0.06 in1.5 mm
05:59 PM 77.2°F25.1°C 59.4°F15.2°C 54% 2.7 mph SW4.3 kmh SW 8.0 mph12.9 kmh 30.03 in1016.9 mb 0.00 in0.0 mm 0.00 in0.0 mm 0.06 in1.5 mm
06:04 PM 77.0°F25.0°C 59.2°F15.1°C 54% 2.5 mph SW4.0 kmh SW 8.0 mph12.9 kmh 30.03 in1016.9 mb 0.00 in0.0 mm 0.00 in0.0 mm 0.06 in1.5 mm
06:09 PM 76.4°F24.7°C 59.2°F15.1°C 55% 2.9 mph WSW4.7 kmh WSW 8.0 mph12.9 kmh 30.04 in1017.3 mb 0.00 in0.0 mm 0.00 in0.0 mm 0.06 in1.5 mm
06:14 PM 76.3°F24.6°C 59.1°F15.1°C 55% 3.3 mph SW5.3 kmh SW 7.0 mph11.3 kmh 30.04 in1017.3 mb 0.00 in0.0 mm 0.00 in0.0 mm 0.06 in1.5 mm
06:19 PM 76.2°F24.6°C 58.3°F14.6°C 54% 1.9 mph WSW3.1 kmh WSW 8.0 mph12.9 kmh 30.04 in1017.3 mb 0.00 in0.0 mm 0.00 in0.0 mm 0.06 in1.5 mm
06:24 PM 76.3°F24.6°C 58.9°F14.9°C 55% 1.9 mph SW3.1 kmh SW 8.0 mph12.9 kmh 30.04 in1017.3 mb 0.00 in0.0 mm 0.00 in0.0 mm 0.06 in1.5 mm
06:29 PM 76.1°F24.5°C 58.4°F14.7°C 54% 4.8 mph SW7.7 kmh SW 9.0 mph14.5 kmh 30.04 in1017.3 mb 0.00 in0.0 mm 0.00 in0.0 mm 0.06 in1.5 mm
06:34 PM 75.7°F24.3°C 58.6°F14.8°C 55% 1.8 mph WSW2.9 kmh WSW 9.0 mph14.5 kmh 30.05 in1017.6 mb 0.00 in0.0 mm 0.00 in0.0 mm 0.06 in1.5 mm
06:39 PM 75.4°F24.1°C 58.8°F14.9°C 56% 1.3 mph SW2.1 kmh SW 9.0 mph14.5 kmh 30.04 in1017.3 mb 0.00 in0.0 mm 0.00 in0.0 mm 0.06 in1.5 mm
06:44 PM 75.0°F23.9°C 58.4°F14.7°C 56% 2.1 mph WSW3.4 kmh WSW 9.0 mph14.5 kmh 30.04 in1017.3 mb 0.00 in0.0 mm 0.00 in0.0 mm 0.06 in1.5 mm
06:48 PM 74.8°F23.8°C 58.7°F14.8°C 57% 2.8 mph WSW4.5 kmh WSW 6.0 mph9.7 kmh 30.04 in1017.3 mb 0.00 in0.0 mm 0.00 in0.0 mm 0.06 in1.5 mm
06:53 PM 74.5°F23.6°C 58.4°F14.7°C 57% 1.0 mph WSW1.6 kmh WSW 7.0 mph11.3 kmh 30.04 in1017.3 mb 0.00 in0.0 mm 0.00 in0.0 mm 0.06 in1.5 mm
06:58 PM 74.1°F23.4°C 58.6°F14.8°C 58% 1.7 mph WSW2.7 kmh WSW 7.0 mph11.3 kmh 30.04 in1017.3 mb 0.00 in0.0 mm 0.00 in0.0 mm 0.06 in1.5 mm
07:03 PM 73.7°F23.2°C 58.7°F14.8°C 59% 1.4 mph WSW2.3 kmh WSW 7.0 mph11.3 kmh 30.05 in1017.6 mb 0.00 in0.0 mm 0.00 in0.0 mm 0.06 in1.5 mm
07:08 PM 73.4°F23.0°C 58.4°F14.7°C 59% 1.8 mph W2.9 kmh W 7.0 mph11.3 kmh 30.05 in1017.6 mb 0.00 in0.0 mm 0.00 in0.0 mm 0.06 in1.5 mm
07:13 PM 73.1°F22.8°C 58.1°F14.5°C 59% 1.5 mph W2.4 kmh W 6.0 mph9.7 kmh 30.04 in1017.3 mb 0.00 in0.0 mm 0.00 in0.0 mm 0.06 in1.5 mm
07:18 PM 72.9°F22.7°C 58.4°F14.7°C 60% 1.1 mph W1.8 kmh W 6.0 mph9.7 kmh 30.04 in1017.3 mb 0.00 in0.0 mm 0.00 in0.0 mm 0.06 in1.5 mm
07:23 PM 72.6°F22.6°C 58.6°F14.8°C 61% 1.3 mph W2.1 kmh W 6.0 mph9.7 kmh 30.04 in1017.3 mb 0.00 in0.0 mm 0.00 in0.0 mm 0.06 in1.5 mm
07:28 PM 72.5°F22.5°C 58.5°F14.7°C 61% Calm Calm 4.0 mph6.4 kmh 30.04 in1017.3 mb 0.00 in0.0 mm 0.00 in0.0 mm 0.06 in1.5 mm
07:33 PM 72.2°F22.3°C 58.7°F14.8°C 62% 1.1 mph W1.8 kmh W 3.0 mph4.8 kmh 30.04 in1017.3 mb 0.00 in0.0 mm 0.00 in0.0 mm 0.06 in1.5 mm
07:38 PM 71.9°F22.2°C 58.4°F14.7°C 62% 1.0 mph W1.6 kmh W 3.0 mph4.8 kmh 30.04 in1017.3 mb 0.00 in0.0 mm 0.00 in0.0 mm 0.06 in1.5 mm
07:43 PM 71.7°F22.1°C 58.2°F14.6°C 62% 1.0 mph W1.6 kmh W 2.0 mph3.2 kmh 30.04 in1017.3 mb 0.00 in0.0 mm 0.00 in0.0 mm 0.06 in1.5 mm
07:48 PM 71.5°F21.9°C 58.4°F14.7°C 63% 1.0 mph W1.6 kmh W 2.0 mph3.2 kmh 30.05 in1017.6 mb 0.00 in0.0 mm 0.00 in0.0 mm 0.06 in1.5 mm
07:53 PM 71.3°F21.8°C 58.2°F14.6°C 63% 1.0 mph W1.6 kmh W 1.0 mph1.6 kmh 30.05 in1017.6 mb 0.00 in0.0 mm 0.00 in0.0 mm 0.06 in1.5 mm
07:58 PM 71.2°F21.8°C 58.2°F14.6°C 63% 1.0 mph W1.6 kmh W 1.0 mph1.6 kmh 30.05 in1017.6 mb 0.00 in0.0 mm 0.00 in0.0 mm 0.06 in1.5 mm
08:03 PM 71.1°F21.7°C 58.3°F14.6°C 64% 1.0 mph W1.6 kmh W 1.0 mph1.6 kmh 30.05 in1017.6 mb 0.00 in0.0 mm 0.00 in0.0 mm 0.06 in1.5 mm
08:08 PM 70.9°F21.6°C 58.1°F14.5°C 64% 1.0 mph W1.6 kmh W 1.0 mph1.6 kmh 30.05 in1017.6 mb 0.00 in0.0 mm 0.00 in0.0 mm 0.06 in1.5 mm
08:13 PM 70.6°F21.4°C 58.3°F14.6°C 65% 1.5 mph SW2.4 kmh SW 2.0 mph3.2 kmh 30.06 in1017.9 mb 0.00 in0.0 mm 0.00 in0.0 mm 0.06 in1.5 mm
08:18 PM 70.2°F21.2°C 57.9°F14.4°C 65% 1.5 mph SW2.4 kmh SW 2.0 mph3.2 kmh 30.06 in1017.9 mb 0.00 in0.0 mm 0.00 in0.0 mm 0.06 in1.5 mm
08:23 PM 70.0°F21.1°C 58.1°F14.5°C 66% 1.0 mph SW1.6 kmh SW 3.0 mph4.8 kmh 30.06 in1017.9 mb 0.00 in0.0 mm 0.00 in0.0 mm 0.06 in1.5 mm
08:28 PM 69.5°F20.8°C 58.1°F14.5°C 67% 1.2 mph SW1.9 kmh SW 3.0 mph4.8 kmh 30.06 in1017.9 mb 0.00 in0.0 mm 0.00 in0.0 mm 0.06 in1.5 mm
08:33 PM 69.0°F20.6°C 58.0°F14.4°C 68% 1.3 mph SW2.1 kmh SW 3.0 mph4.8 kmh 30.06 in1017.9 mb 0.00 in0.0 mm 0.00 in0.0 mm 0.06 in1.5 mm
08:38 PM 68.6°F20.3°C 58.2°F14.6°C 69% 1.4 mph SW2.3 kmh SW 2.0 mph3.2 kmh 30.06 in1017.9 mb 0.00 in0.0 mm 0.00 in0.0 mm 0.06 in1.5 mm
08:43 PM 68.6°F20.3°C 58.2°F14.6°C 69% 1.2 mph SW1.9 kmh SW 3.0 mph4.8 kmh 30.07 in1018.3 mb 0.00 in0.0 mm 0.00 in0.0 mm 0.06 in1.5 mm
08:48 PM 68.8°F20.4°C 58.4°F14.7°C 69% 1.2 mph SW1.9 kmh SW 3.0 mph4.8 kmh 30.07 in1018.3 mb 0.00 in0.0 mm 0.00 in0.0 mm 0.06 in1.5 mm
08:53 PM 69.0°F20.6°C 58.2°F14.6°C 68% 1.7 mph SW2.7 kmh SW 3.0 mph4.8 kmh 30.07 in1018.3 mb 0.00 in0.0 mm 0.00 in0.0 mm 0.06 in1.5 mm
08:58 PM 69.2°F20.7°C 58.4°F14.7°C 68% 1.7 mph SW2.7 kmh SW 4.0 mph6.4 kmh 30.07 in1018.3 mb 0.00 in0.0 mm 0.00 in0.0 mm 0.06 in1.5 mm
09:03 PM 69.0°F20.6°C 58.2°F14.6°C 68% 1.7 mph SW2.7 kmh SW 4.0 mph6.4 kmh 30.07 in1018.3 mb 0.00 in0.0 mm 0.00 in0.0 mm 0.06 in1.5 mm
09:08 PM 68.8°F20.4°C 58.0°F14.4°C 68% 1.2 mph WSW1.9 kmh WSW 4.0 mph6.4 kmh 30.07 in1018.3 mb 0.00 in0.0 mm 0.00 in0.0 mm 0.06 in1.5 mm
09:13 PM 68.9°F20.5°C 58.5°F14.7°C 69% 3.3 mph NNE5.3 kmh NNE 6.0 mph9.7 kmh 30.08 in1018.6 mb 0.00 in0.0 mm 0.00 in0.0 mm 0.06 in1.5 mm
09:18 PM 67.6°F19.8°C 58.4°F14.7°C 72% 2.9 mph NE4.7 kmh NE 6.0 mph9.7 kmh 30.08 in1018.6 mb 0.00 in0.0 mm 0.00 in0.0 mm 0.06 in1.5 mm
09:23 PM 67.3°F19.6°C 58.5°F14.7°C 73% Calm Calm 6.0 mph9.7 kmh 30.08 in1018.6 mb 0.00 in0.0 mm 0.00 in0.0 mm 0.06 in1.5 mm
09:28 PM 66.9°F19.4°C 58.5°F14.7°C 74% 1.2 mph NE1.9 kmh NE 6.0 mph9.7 kmh 30.08 in1018.6 mb 0.00 in0.0 mm 0.00 in0.0 mm 0.06 in1.5 mm
09:33 PM 66.8°F19.3°C 58.7°F14.8°C 75% 1.0 mph NE1.6 kmh NE 6.0 mph9.7 kmh 30.09 in1019.0 mb 0.00 in0.0 mm 0.00 in0.0 mm 0.06 in1.5 mm
09:38 PM 67.1°F19.5°C 59.0°F15.0°C 75% 2.0 mph NE3.2 kmh NE 3.0 mph4.8 kmh 30.09 in1019.0 mb 0.00 in0.0 mm 0.00 in0.0 mm 0.06 in1.5 mm
09:43 PM 67.3°F19.6°C 59.2°F15.1°C 75% Calm Calm 3.0 mph4.8 kmh 30.09 in1019.0 mb 0.00 in0.0 mm 0.00 in0.0 mm 0.06 in1.5 mm
09:48 PM 67.5°F19.7°C 59.4°F15.2°C 75% 1.0 mph E1.6 kmh E 3.0 mph4.8 kmh 30.10 in1019.3 mb 0.00 in0.0 mm 0.00 in0.0 mm 0.06 in1.5 mm
09:53 PM 67.5°F19.7°C 59.4°F15.2°C 75% 1.0 mph E1.6 kmh E 3.0 mph4.8 kmh 30.10 in1019.3 mb 0.00 in0.0 mm 0.00 in0.0 mm 0.06 in1.5 mm
09:58 PM 67.4°F19.7°C 59.3°F15.2°C 75% 1.1 mph E1.8 kmh E 2.0 mph3.2 kmh 30.10 in1019.3 mb 0.00 in0.0 mm 0.00 in0.0 mm 0.06 in1.5 mm
10:03 PM 67.4°F19.7°C 59.7°F15.4°C 76% 2.8 mph E4.5 kmh E 5.0 mph8.0 kmh 30.10 in1019.3 mb 0.00 in0.0 mm 0.00 in0.0 mm 0.06 in1.5 mm
10:08 PM 67.5°F19.7°C 59.8°F15.4°C 76% 1.6 mph E2.6 kmh E 5.0 mph8.0 kmh 30.10 in1019.3 mb 0.00 in0.0 mm 0.00 in0.0 mm 0.06 in1.5 mm
10:13 PM 67.4°F19.7°C 60.0°F15.6°C 77% 2.0 mph ENE3.2 kmh ENE 5.0 mph8.0 kmh 30.10 in1019.3 mb 0.00 in0.0 mm 0.00 in0.0 mm 0.06 in1.5 mm
10:18 PM 67.3°F19.6°C 60.3°F15.7°C 78% 1.8 mph E2.9 kmh E 5.0 mph8.0 kmh 30.10 in1019.3 mb 0.00 in0.0 mm 0.00 in0.0 mm 0.06 in1.5 mm
10:23 PM 67.2°F19.6°C 60.2°F15.7°C 78% 1.5 mph E2.4 kmh E 5.0 mph8.0 kmh 30.10 in1019.3 mb 0.00 in0.0 mm 0.00 in0.0 mm 0.06 in1.5 mm
10:28 PM 67.0°F19.4°C 60.4°F15.8°C 79% 1.1 mph ESE1.8 kmh ESE 5.0 mph8.0 kmh 30.10 in1019.3 mb 0.00 in0.0 mm 0.00 in0.0 mm 0.06 in1.5 mm
10:33 PM 66.7°F19.3°C 60.1°F15.6°C 79% 1.3 mph E2.1 kmh E 5.0 mph8.0 kmh 30.10 in1019.3 mb 0.00 in0.0 mm 0.00 in0.0 mm 0.06 in1.5 mm
10:38 PM 66.5°F19.2°C 60.2°F15.7°C 80% 1.7 mph E2.7 kmh E 3.0 mph4.8 kmh 30.10 in1019.3 mb 0.00 in0.0 mm 0.00 in0.0 mm 0.06 in1.5 mm
10:43 PM 66.3°F19.1°C 60.4°F15.8°C 81% 1.1 mph SE1.8 kmh SE 3.0 mph4.8 kmh 30.10 in1019.3 mb 0.00 in0.0 mm 0.00 in0.0 mm 0.06 in1.5 mm
10:48 PM 66.2°F19.0°C 60.3°F15.7°C 81% 1.0 mph E1.6 kmh E 3.0 mph4.8 kmh 30.11 in1019.6 mb 0.00 in0.0 mm 0.00 in0.0 mm 0.06 in1.5 mm
10:53 PM 66.3°F19.1°C 60.3°F15.7°C 81% 1.0 mph E1.6 kmh E 3.0 mph4.8 kmh 30.11 in1019.6 mb 0.00 in0.0 mm 0.00 in0.0 mm 0.06 in1.5 mm
10:58 PM 66.3°F19.1°C 60.3°F15.7°C 81% Calm Calm 2.0 mph3.2 kmh 30.10 in1019.3 mb 0.00 in0.0 mm 0.00 in0.0 mm 0.06 in1.5 mm
11:03 PM 66.2°F19.0°C 60.5°F15.8°C 82% 1.9 mph NE3.1 kmh NE 5.0 mph8.0 kmh 30.09 in1019.0 mb 0.00 in0.0 mm 0.00 in0.0 mm 0.06 in1.5 mm
11:08 PM 65.8°F18.8°C 60.2°F15.7°C 82% 3.5 mph NE5.6 kmh NE 5.0 mph8.0 kmh 30.09 in1019.0 mb 0.00 in0.0 mm 0.00 in0.0 mm 0.06 in1.5 mm
11:13 PM 65.5°F18.6°C 60.2°F15.7°C 83% 3.6 mph NE5.8 kmh NE 8.0 mph12.9 kmh 30.09 in1019.0 mb 0.00 in0.0 mm 0.00 in0.0 mm 0.06 in1.5 mm
11:18 PM 65.2°F18.4°C 60.2°F15.7°C 84% 2.6 mph NE4.2 kmh NE 8.0 mph12.9 kmh 30.08 in1018.6 mb 0.00 in0.0 mm 0.00 in0.0 mm 0.06 in1.5 mm
11:23 PM 64.8°F18.2°C 60.2°F15.7°C 85% 2.0 mph NNE3.2 kmh NNE 8.0 mph12.9 kmh 30.09 in1019.0 mb 0.00 in0.0 mm 0.00 in0.0 mm 0.06 in1.5 mm
11:28 PM 64.5°F18.1°C 60.2°F15.7°C 86% 1.8 mph E2.9 kmh E 8.0 mph12.9 kmh 30.09 in1019.0 mb 0.00 in0.0 mm 0.00 in0.0 mm 0.06 in1.5 mm
11:33 PM 64.3°F17.9°C 60.0°F15.6°C 86% 1.5 mph NE2.4 kmh NE 8.0 mph12.9 kmh 30.09 in1019.0 mb 0.00 in0.0 mm 0.00 in0.0 mm 0.06 in1.5 mm
11:38 PM 64.2°F17.9°C 59.9°F15.5°C 86% 1.6 mph NE2.6 kmh NE 4.0 mph6.4 kmh 30.09 in1019.0 mb 0.00 in0.0 mm 0.00 in0.0 mm 0.06 in1.5 mm
11:43 PM 64.2°F17.9°C 60.2°F15.7°C 87% 1.9 mph NE3.1 kmh NE 3.0 mph4.8 kmh 30.09 in1019.0 mb 0.00 in0.0 mm 0.00 in0.0 mm 0.06 in1.5 mm
11:48 PM 64.1°F17.8°C 60.1°F15.6°C 87% 1.6 mph ENE2.6 kmh ENE 3.0 mph4.8 kmh 30.09 in1019.0 mb 0.00 in0.0 mm 0.00 in0.0 mm 0.06 in1.5 mm
11:53 PM 63.9°F17.7°C 60.0°F15.6°C 87% 1.8 mph NE2.9 kmh NE 3.0 mph4.8 kmh 30.09 in1019.0 mb 0.00 in0.0 mm 0.00 in0.0 mm 0.06 in1.5 mm
11:58 PM 63.8°F17.7°C 59.9°F15.5°C 87% Calm Calm 3.0 mph4.8 kmh 30.10 in1019.3 mb 0.00 in0.0 mm 0.00 in0.0 mm 0.06 in1.5 mm